createdAt,value
2022-08-05T00:01:36.051Z,22.10
2022-08-05T00:04:18.859Z,22.10
2022-08-05T00:06:51.667Z,21.90
2022-08-05T00:09:26.348Z,21.80
2022-08-05T00:12:00.913Z,22.00
2022-08-05T00:14:32.832Z,22.00
2022-08-05T00:17:03.079Z,22.00
2022-08-05T00:19:33.190Z,21.80
2022-08-05T00:22:04.321Z,21.70
2022-08-05T00:24:35.239Z,21.70
2022-08-05T00:27:10.409Z,21.70
2022-08-05T00:29:45.637Z,21.80
2022-08-05T00:32:15.796Z,22.00
2022-08-05T00:35:03.438Z,22.10
2022-08-05T00:37:52.605Z,22.20
2022-08-05T00:40:29.417Z,22.10
2022-08-05T00:43:00.404Z,22.00
2022-08-05T00:45:43.536Z,22.00
2022-08-05T00:48:13.920Z,21.90
2022-08-05T00:50:46.036Z,22.00
2022-08-05T00:54:01.482Z,22.20
2022-08-05T00:56:08.192Z,22.10
2022-08-05T00:58:38.095Z,22.00
2022-08-05T01:01:08.867Z,21.90
2022-08-05T01:03:39.085Z,21.90
2022-08-05T01:06:14.065Z,21.90
2022-08-05T01:08:47.137Z,21.90
2022-08-05T01:11:21.912Z,21.90
2022-08-05T01:14:01.465Z,22.00
2022-08-05T01:16:40.375Z,22.00
2022-08-05T01:19:36.755Z,22.00
2022-08-05T01:22:42.086Z,22.00
2022-08-05T01:25:41.079Z,21.90
2022-08-05T01:28:36.184Z,21.90
2022-08-05T01:31:12.339Z,21.90
2022-08-05T01:33:53.883Z,21.90
2022-08-05T01:36:30.255Z,21.90
2022-08-05T01:39:01.356Z,21.90
2022-08-05T01:41:39.959Z,21.80
2022-08-05T01:44:16.071Z,21.70
2022-08-05T01:46:47.347Z,21.70
2022-08-05T01:49:24.417Z,21.80
2022-08-05T01:51:58.767Z,21.70
2022-08-05T01:54:45.759Z,21.70
2022-08-05T01:58:12.870Z,21.70
2022-08-05T02:00:11.872Z,21.70
2022-08-05T02:02:53.597Z,21.70
2022-08-05T02:05:30.562Z,21.70
2022-08-05T02:08:03.734Z,21.70
2022-08-05T02:10:37.933Z,21.70
2022-08-05T02:13:16.623Z,21.70
2022-08-05T02:15:51.327Z,21.60
2022-08-05T02:18:32.691Z,21.60
2022-08-05T02:21:15.150Z,21.70
2022-08-05T02:23:47.052Z,21.70
2022-08-05T02:26:23.474Z,21.80
2022-08-05T02:28:58.219Z,21.80
2022-08-05T02:31:34.751Z,21.80
2022-08-05T02:34:09.941Z,21.70
2022-08-05T02:36:44.466Z,21.80
2022-08-05T02:39:14.702Z,21.60
2022-08-05T02:41:57.968Z,21.50
2022-08-05T02:44:32.268Z,21.50
2022-08-05T02:47:07.267Z,21.60
2022-08-05T02:49:41.943Z,21.70
2022-08-05T02:52:25.827Z,21.60
2022-08-05T02:55:01.876Z,21.60
2022-08-05T02:58:20.022Z,21.70
2022-08-05T03:00:26.862Z,21.60
2022-08-05T03:03:19.471Z,21.50
2022-08-05T03:06:55.503Z,21.50
2022-08-05T03:08:43.918Z,21.30
2022-08-05T03:11:55.692Z,21.00
2022-08-05T03:14:13.548Z,20.80
2022-08-05T03:16:42.733Z,20.70
2022-08-05T03:19:20.290Z,20.40
2022-08-05T03:22:05.037Z,20.40
2022-08-05T03:24:35.022Z,20.40
2022-08-05T03:27:15.624Z,20.50
2022-08-05T03:30:07.325Z,20.60
2022-08-05T03:32:33.983Z,20.90
2022-08-05T03:35:09.994Z,20.90
2022-08-05T03:37:45.815Z,20.90
2022-08-05T03:40:24.192Z,20.90
2022-08-05T03:43:59.324Z,21.00
2022-08-05T03:45:57.315Z,21.00
2022-08-05T03:48:29.000Z,21.10
2022-08-05T03:52:35.109Z,21.10
2022-08-05T03:55:54.143Z,21.00
2022-08-05T03:56:50.101Z,21.10
2022-08-05T03:59:25.077Z,21.10
2022-08-05T04:01:58.924Z,21.10
2022-08-05T04:04:29.667Z,21.10
2022-08-05T04:07:06.599Z,21.20
2022-08-05T04:09:36.543Z,21.10
2022-08-05T04:12:23.845Z,21.20
2022-08-05T04:14:54.712Z,21.20
2022-08-05T04:17:55.652Z,21.30
2022-08-05T04:20:23.416Z,21.30
2022-08-05T04:22:53.861Z,21.40
2022-08-05T04:25:24.213Z,21.30
2022-08-05T04:28:12.971Z,21.20
2022-08-05T04:30:43.396Z,21.20
2022-08-05T04:33:12.173Z,21.30
2022-08-05T04:36:10.989Z,21.40
2022-08-05T04:38:39.971Z,21.30
2022-08-05T04:41:10.127Z,21.40
2022-08-05T04:43:40.512Z,21.50
2022-08-05T04:46:28.479Z,21.50
2022-08-05T04:48:58.697Z,21.30
2022-08-05T04:51:30.549Z,21.10
2022-08-05T04:54:01.363Z,21.20
2022-08-05T04:56:34.876Z,21.40
2022-08-05T04:59:22.442Z,21.40
2022-08-05T05:02:07.817Z,21.50
2022-08-05T05:04:48.059Z,21.40
2022-08-05T05:07:29.184Z,20.80
2022-08-05T05:10:02.265Z,20.30
2022-08-05T05:12:33.543Z,20.30
2022-08-05T05:15:03.945Z,19.80
2022-08-05T05:17:56.949Z,19.60
2022-08-05T05:20:28.308Z,19.50
2022-08-05T05:22:57.983Z,19.30
2022-08-05T05:25:40.409Z,19.30
2022-08-05T05:28:09.648Z,19.20
2022-08-05T05:30:39.285Z,19.30
2022-08-05T05:33:16.837Z,19.20
2022-08-05T05:35:48.576Z,19.30
2022-08-05T05:38:22.240Z,19.40
2022-08-05T05:40:57.664Z,19.40
2022-08-05T05:43:54.841Z,19.30
2022-08-05T05:46:18.183Z,19.20
2022-08-05T05:48:49.193Z,19.30
2022-08-05T05:51:22.710Z,19.20
2022-08-05T05:53:57.997Z,19.20
2022-08-05T05:56:33.347Z,19.20
2022-08-05T05:59:05.581Z,19.20
2022-08-05T06:01:39.671Z,19.10
2022-08-05T06:04:12.216Z,19.20
2022-08-05T06:06:43.074Z,19.10
2022-08-05T06:09:17.495Z,19.00
2022-08-05T06:12:02.080Z,19.00
2022-08-05T06:14:31.786Z,19.00
2022-08-05T06:17:22.301Z,19.00
2022-08-05T06:19:57.202Z,18.90
2022-08-05T06:22:30.730Z,18.90
2022-08-05T06:25:24.395Z,18.90
2022-08-05T06:28:10.685Z,18.90
2022-08-05T06:30:41.851Z,18.90
2022-08-05T06:33:10.928Z,18.90
2022-08-05T06:36:04.002Z,18.90
2022-08-05T06:38:36.213Z,18.90
2022-08-05T06:41:08.416Z,19.00
2022-08-05T06:43:59.267Z,19.00
2022-08-05T06:46:30.701Z,19.10
2022-08-05T06:49:02.704Z,19.00
2022-08-05T06:51:36.579Z,19.10
2022-08-05T06:54:09.891Z,18.90
2022-08-05T06:56:55.083Z,18.80
2022-08-05T06:59:38.709Z,18.90
2022-08-05T07:02:09.521Z,18.80
2022-08-05T07:04:38.638Z,18.90
2022-08-05T07:07:08.221Z,18.80
2022-08-05T07:09:37.333Z,18.90
2022-08-05T07:12:34.050Z,18.90
2022-08-05T07:15:34.324Z,18.90
2022-08-05T07:18:29.067Z,18.90
2022-08-05T07:21:04.711Z,19.00
2022-08-05T07:23:36.307Z,18.90
2022-08-05T07:26:22.568Z,18.90
2022-08-05T07:28:53.287Z,18.90
2022-08-05T07:31:40.806Z,18.90
2022-08-05T07:34:21.542Z,18.90
2022-08-05T07:36:57.947Z,18.80
2022-08-05T07:40:25.994Z,18.70
2022-08-05T07:42:31.830Z,18.60
2022-08-05T07:45:03.818Z,18.40
2022-08-05T07:47:42.557Z,18.60
2022-08-05T07:50:12.838Z,18.60
2022-08-05T07:52:50.244Z,18.60
2022-08-05T07:55:44.549Z,19.70
2022-08-05T07:58:54.514Z,18.60
2022-08-05T08:01:06.176Z,18.60
2022-08-05T08:03:44.401Z,18.60
2022-08-05T08:06:16.991Z,18.70
2022-08-05T08:08:46.956Z,18.70
2022-08-05T08:11:18.654Z,18.70
2022-08-05T08:14:00.975Z,18.70
2022-08-05T08:16:50.428Z,18.70
2022-08-05T08:20:10.477Z,18.60
2022-08-05T08:22:15.851Z,18.70
2022-08-05T08:24:51.338Z,18.70
2022-08-05T08:27:22.511Z,18.60
2022-08-05T08:30:28.520Z,18.60
2022-08-05T08:33:13.815Z,18.70
2022-08-05T08:35:53.959Z,18.60
2022-08-05T08:38:37.959Z,18.70
2022-08-05T08:41:10.101Z,18.60
2022-08-05T08:45:16.465Z,18.70
2022-08-05T08:46:38.174Z,19.10
2022-08-05T08:50:04.045Z,18.70
2022-08-05T08:52:13.082Z,18.80
2022-08-05T08:54:59.198Z,18.80
2022-08-05T08:57:48.362Z,18.70
2022-08-05T09:00:23.254Z,19.10
2022-08-05T09:02:55.381Z,18.90
2022-08-05T09:05:38.447Z,19.00
2022-08-05T09:08:19.679Z,19.10
2022-08-05T09:11:01.345Z,19.00
2022-08-05T09:14:10.204Z,19.00
2022-08-05T09:16:26.817Z,18.80
2022-08-05T09:18:57.053Z,19.70
2022-08-05T09:22:18.345Z,19.20
2022-08-05T09:24:28.296Z,19.40
2022-08-05T09:27:02.849Z,19.60
2022-08-05T09:29:47.916Z,19.60
2022-08-05T09:32:51.077Z,19.90
2022-08-05T09:35:27.279Z,20.00
2022-08-05T09:38:16.403Z,20.10
2022-08-05T09:40:53.780Z,20.30
2022-08-05T09:43:40.605Z,20.80
2022-08-05T09:46:27.952Z,21.50
2022-08-05T09:49:06.858Z,21.80
2022-08-05T09:51:42.640Z,21.90
2022-08-05T09:54:15.341Z,22.10
2022-08-05T09:56:52.705Z,22.50
2022-08-05T09:59:35.077Z,22.40
2022-08-05T10:02:09.344Z,22.60
2022-08-05T10:04:41.398Z,22.90
2022-08-05T10:07:20.162Z,23.10
2022-08-05T10:10:13.844Z,23.20
2022-08-05T10:12:50.430Z,23.30
2022-08-05T10:15:34.292Z,23.60
2022-08-05T10:18:16.658Z,23.80
2022-08-05T10:20:50.035Z,24.00
2022-08-05T10:23:34.474Z,24.20
2022-08-05T10:26:14.874Z,24.30
2022-08-05T10:28:48.202Z,24.50
2022-08-05T10:32:50.998Z,24.60
2022-08-05T10:34:09.610Z,24.50
2022-08-05T10:36:42.051Z,24.70
2022-08-05T10:39:24.071Z,24.80
2022-08-05T10:42:06.477Z,24.90
2022-08-05T10:44:39.313Z,25.40
2022-08-05T10:47:26.289Z,25.90
2022-08-05T10:50:20.555Z,26.00
2022-08-05T10:52:58.670Z,25.80
2022-08-05T10:55:38.431Z,26.00
2022-08-05T10:58:21.179Z,25.50
2022-08-05T11:00:55.298Z,25.40
2022-08-05T11:03:34.654Z,25.10
2022-08-05T11:06:15.792Z,24.90
2022-08-05T11:09:17.274Z,24.70
2022-08-05T11:11:59.611Z,24.90
2022-08-05T11:15:00.956Z,25.10
2022-08-05T11:17:59.953Z,25.10
2022-08-05T11:20:41.433Z,25.10
2022-08-05T11:24:04.032Z,25.20
2022-08-05T11:26:57.957Z,25.30
2022-08-05T11:29:52.797Z,25.30
2022-08-05T11:32:35.831Z,25.80
2022-08-05T11:36:02.892Z,26.20
2022-08-05T11:39:00.801Z,26.90
2022-08-05T11:41:56.459Z,27.30
2022-08-05T11:44:40.341Z,27.10
2022-08-05T11:47:15.161Z,27.00
2022-08-05T11:50:01.062Z,27.30
2022-08-05T11:52:40.726Z,27.00
2022-08-05T11:55:17.340Z,27.00
2022-08-05T11:58:09.940Z,26.90
2022-08-05T12:00:44.415Z,26.60
2022-08-05T12:03:23.957Z,26.30
2022-08-05T12:06:09.926Z,25.90
2022-08-05T12:08:49.843Z,25.70
2022-08-05T12:11:22.145Z,26.00
2022-08-05T12:14:04.315Z,25.80
2022-08-05T12:16:39.768Z,25.50
2022-08-05T12:20:25.894Z,25.40
2022-08-05T12:22:06.099Z,25.40
2022-08-05T12:24:49.663Z,25.20
2022-08-05T12:27:25.810Z,24.90
2022-08-05T12:30:07.113Z,24.60
2022-08-05T12:32:38.465Z,24.40
2022-08-05T12:35:12.860Z,24.30
2022-08-05T12:37:48.685Z,24.20
2022-08-05T12:40:43.625Z,24.40
2022-08-05T12:43:22.539Z,24.80
2022-08-05T12:49:00.348Z,24.90
2022-08-05T12:52:11.210Z,24.70
2022-08-05T12:54:43.079Z,24.70
2022-08-05T12:57:17.982Z,24.60
2022-08-05T13:01:58.424Z,24.50
2022-08-05T13:02:59.218Z,24.50
2022-08-05T13:05:34.025Z,24.40
2022-08-05T13:08:08.764Z,24.40
2022-08-05T13:10:50.540Z,24.40
2022-08-05T13:14:06.300Z,24.40
2022-08-05T13:16:18.971Z,24.30
2022-08-05T13:18:59.167Z,24.40
2022-08-05T13:21:38.058Z,24.20
2022-08-05T13:24:27.687Z,24.10
2022-08-05T13:27:16.918Z,23.90
2022-08-05T13:30:32.570Z,23.80
2022-08-05T13:32:50.429Z,23.80
2022-08-05T13:35:43.162Z,23.70
2022-08-05T13:38:28.089Z,23.70
2022-08-05T13:41:04.114Z,23.70
2022-08-05T13:43:44.395Z,23.70
2022-08-05T13:46:43.660Z,23.80
2022-08-05T13:49:16.011Z,23.80
2022-08-05T13:51:47.239Z,23.90
2022-08-05T13:54:24.864Z,23.90
2022-08-05T13:56:55.262Z,24.00
2022-08-05T13:59:27.446Z,24.00
2022-08-05T14:02:03.218Z,24.00
2022-08-05T14:04:51.921Z,24.00
2022-08-05T14:08:00.907Z,24.20
2022-08-05T14:10:18.938Z,24.20
2022-08-05T14:12:57.787Z,24.40
2022-08-05T14:16:07.975Z,25.40
2022-08-05T14:18:23.366Z,25.60
2022-08-05T14:20:54.841Z,25.70
2022-08-05T14:23:29.663Z,25.80
2022-08-05T14:26:07.250Z,25.70
2022-08-05T14:28:58.631Z,25.70
2022-08-05T14:31:54.333Z,25.70
2022-08-05T14:34:23.774Z,25.70
2022-08-05T14:36:53.497Z,25.70
2022-08-05T14:39:24.956Z,25.40
2022-08-05T14:42:19.572Z,25.10
2022-08-05T14:44:50.797Z,24.80
2022-08-05T14:48:04.270Z,24.90
2022-08-05T14:50:39.745Z,24.90
2022-08-05T14:53:11.186Z,25.10
2022-08-05T14:55:43.494Z,25.10
2022-08-05T14:58:16.969Z,25.00
2022-08-05T15:00:59.725Z,24.80
2022-08-05T15:03:34.115Z,24.70
2022-08-05T15:06:14.967Z,24.50
2022-08-05T15:09:01.519Z,24.30
2022-08-05T15:11:51.388Z,24.20
2022-08-05T15:14:35.097Z,24.30
2022-08-05T15:17:45.807Z,24.20
2022-08-05T15:20:18.411Z,23.90
2022-08-05T15:22:56.931Z,23.70
2022-08-05T15:25:40.833Z,23.70
2022-08-05T15:28:27.279Z,23.70
2022-08-05T15:30:59.574Z,23.70
2022-08-05T15:34:18.458Z,23.70
2022-08-05T15:36:25.855Z,23.60
2022-08-05T15:39:07.632Z,23.70
2022-08-05T15:41:56.123Z,24.00
2022-08-05T15:44:30.363Z,24.20
2022-08-05T15:47:00.955Z,24.10
2022-08-05T15:49:56.955Z,24.00
2022-08-05T15:52:52.742Z,24.10
2022-08-05T15:56:04.076Z,24.70
2022-08-05T15:58:45.359Z,24.90
2022-08-05T16:04:10.464Z,25.40
2022-08-05T16:06:45.870Z,25.30
2022-08-05T16:09:25.723Z,25.50
2022-08-05T16:12:05.513Z,25.30
2022-08-05T16:14:40.077Z,25.50
2022-08-05T16:25:47.844Z,24.80
2022-08-05T16:34:48.623Z,24.40
2022-08-05T16:38:15.276Z,24.20
2022-08-05T16:40:35.415Z,24.00
2022-08-05T16:49:02.887Z,23.70
2022-08-05T16:51:57.710Z,23.70
2022-08-05T16:54:47.089Z,23.50
2022-08-05T16:57:53.230Z,23.70
2022-08-05T17:00:25.962Z,23.30
2022-08-05T17:03:19.832Z,23.20
2022-08-05T17:05:53.902Z,23.00
2022-08-05T17:08:36.210Z,22.70
2022-08-05T17:11:19.145Z,23.70
2022-08-05T17:13:49.039Z,24.20
2022-08-05T17:16:36.779Z,24.50
2022-08-05T17:19:09.371Z,24.60
2022-08-05T17:21:41.418Z,24.60
2022-08-05T17:24:35.141Z,24.50
2022-08-05T17:27:10.814Z,24.50
2022-08-05T17:29:41.798Z,24.70
2022-08-05T17:32:26.334Z,24.60
2022-08-05T17:34:55.578Z,24.60
2022-08-05T17:37:39.610Z,24.60
2022-08-05T17:40:17.210Z,24.60
2022-08-05T17:42:50.960Z,24.70
2022-08-05T17:45:23.104Z,24.80
2022-08-05T17:47:55.798Z,24.70
2022-08-05T17:50:28.849Z,24.60
2022-08-05T17:53:01.870Z,24.60
2022-08-05T17:55:39.784Z,24.50
2022-08-05T17:58:16.444Z,24.50
2022-08-05T18:00:53.700Z,24.50
2022-08-05T18:03:58.725Z,24.60
2022-08-05T18:06:17.260Z,24.40
2022-08-05T18:08:52.543Z,24.40
2022-08-05T18:11:33.163Z,24.50
2022-08-05T18:14:13.164Z,24.40
2022-08-05T18:16:52.194Z,24.20
2022-08-05T18:19:25.998Z,24.40
2022-08-05T18:22:07.863Z,24.10
2022-08-05T18:24:40.264Z,24.10
2022-08-05T18:27:23.530Z,24.10
2022-08-05T18:29:54.806Z,24.20
2022-08-05T18:32:29.713Z,24.00
2022-08-05T18:35:05.589Z,23.90
2022-08-05T18:37:40.299Z,23.90
2022-08-05T18:40:34.568Z,23.80
2022-08-05T18:43:16.386Z,23.60
2022-08-05T18:45:56.238Z,23.60
2022-08-05T18:48:30.650Z,23.50
2022-08-05T18:52:04.499Z,23.60
2022-08-05T18:54:18.150Z,23.60
2022-08-05T18:56:50.875Z,23.90
2022-08-05T18:59:43.838Z,23.90
2022-08-05T19:02:32.781Z,24.00
2022-08-05T19:06:05.441Z,24.00
2022-08-05T19:08:00.984Z,24.00
2022-08-05T19:10:30.716Z,23.90
2022-08-05T19:13:02.545Z,24.00
2022-08-05T19:15:58.977Z,23.90
2022-08-05T19:18:25.922Z,23.80
2022-08-05T19:20:58.354Z,23.80
2022-08-05T19:24:05.543Z,23.70
2022-08-05T19:26:22.401Z,23.60
2022-08-05T19:28:51.895Z,23.70
2022-08-05T19:31:24.745Z,23.60
2022-08-05T19:33:56.549Z,23.70
2022-08-05T19:36:27.239Z,23.60
2022-08-05T19:39:12.020Z,23.40
2022-08-05T19:42:07.433Z,23.30
2022-08-05T19:44:45.280Z,22.90
2022-08-05T19:47:19.806Z,22.50
2022-08-05T19:49:49.661Z,22.30
2022-08-05T19:52:31.189Z,22.20
2022-08-05T19:55:06.805Z,22.00
2022-08-05T19:57:48.984Z,21.80
2022-08-05T20:00:33.596Z,21.80
2022-08-05T20:03:09.176Z,21.70
2022-08-05T20:05:50.159Z,21.70
2022-08-05T20:08:24.618Z,21.60
2022-08-05T20:10:59.826Z,21.50
2022-08-05T20:13:54.427Z,21.50
2022-08-05T20:16:19.520Z,21.40
2022-08-05T20:18:57.227Z,21.40
2022-08-05T20:21:29.005Z,21.30
2022-08-05T20:24:00.981Z,21.20
2022-08-05T20:26:31.434Z,21.00
2022-08-05T20:29:01.617Z,21.00
2022-08-05T20:31:43.258Z,21.00
2022-08-05T20:34:40.715Z,20.80
2022-08-05T20:37:24.185Z,20.70
2022-08-05T20:40:01.756Z,20.70
2022-08-05T20:42:31.730Z,20.60
2022-08-05T20:45:01.712Z,20.80
2022-08-05T20:47:34.756Z,20.70
2022-08-05T20:50:14.833Z,20.70
2022-08-05T20:52:46.843Z,20.70
2022-08-05T20:55:56.514Z,20.70
2022-08-05T20:58:06.181Z,20.80
2022-08-05T21:00:49.651Z,20.80
2022-08-05T21:03:23.562Z,20.80
2022-08-05T21:06:02.898Z,21.00
2022-08-05T21:08:41.919Z,20.80
2022-08-05T21:12:07.417Z,20.70
2022-08-05T21:14:02.860Z,20.60
2022-08-05T21:16:33.842Z,20.60
2022-08-05T21:19:11.543Z,20.40
2022-08-05T21:21:50.596Z,20.20
2022-08-05T21:24:20.794Z,20.10
2022-08-05T21:26:59.966Z,19.60
2022-08-05T21:29:33.328Z,19.90
2022-08-05T21:32:17.142Z,19.80
2022-08-05T21:35:06.669Z,19.80
2022-08-05T21:37:41.667Z,20.00
2022-08-05T21:40:25.144Z,19.90
2022-08-05T21:42:54.899Z,19.80
2022-08-05T21:45:56.995Z,19.80
2022-08-05T21:48:20.710Z,19.80
2022-08-05T21:50:54.576Z,19.60
2022-08-05T21:53:30.036Z,19.80
2022-08-05T21:56:09.974Z,19.50
2022-08-05T21:58:57.526Z,19.60
2022-08-05T22:01:41.105Z,19.50
2022-08-05T22:04:13.494Z,19.50
2022-08-05T22:06:50.443Z,19.50
2022-08-05T22:09:23.375Z,19.60
2022-08-05T22:12:13.607Z,19.20
2022-08-05T22:14:47.098Z,19.40
2022-08-05T22:17:19.263Z,19.40
2022-08-05T22:20:03.522Z,19.20
2022-08-05T22:22:59.437Z,19.30
2022-08-05T22:26:09.605Z,19.10
2022-08-05T22:28:40.654Z,18.90
2022-08-05T22:31:11.233Z,19.00
2022-08-05T22:33:55.854Z,18.90
2022-08-05T22:36:29.690Z,18.90
2022-08-05T22:39:09.176Z,18.80
2022-08-05T22:42:09.898Z,18.60
2022-08-05T22:44:30.967Z,18.60
2022-08-05T22:47:06.531Z,18.50
2022-08-05T22:50:19.230Z,18.60
2022-08-05T22:52:44.743Z,18.50
2022-08-05T22:55:18.943Z,18.50
2022-08-05T22:58:01.307Z,18.50
2022-08-05T23:00:37.484Z,18.20
2022-08-05T23:03:07.556Z,18.50
2022-08-05T23:05:36.759Z,18.50
2022-08-05T23:08:08.348Z,18.50
2022-08-05T23:10:42.073Z,18.40
2022-08-05T23:13:23.809Z,18.40
2022-08-05T23:15:53.266Z,18.20
2022-08-05T23:18:22.868Z,18.30
2022-08-05T23:20:58.413Z,18.20
2022-08-05T23:23:29.864Z,18.10
2022-08-05T23:26:03.005Z,18.20
2022-08-05T23:28:34.627Z,18.20
2022-08-05T23:31:16.999Z,18.00
2022-08-05T23:36:45.040Z,17.90
2022-08-05T23:39:17.107Z,17.80
2022-08-05T23:41:56.263Z,17.80
2022-08-05T23:44:31.157Z,17.70
2022-08-05T23:47:02.579Z,17.60
2022-08-05T23:49:45.818Z,17.50
2022-08-05T23:52:50.013Z,17.50
2022-08-05T23:55:20.600Z,17.40
2022-08-05T23:57:51.159Z,17.30
